createdAt,value
2022-11-23T00:02:56.474Z,96878.56
2022-11-23T00:06:05.526Z,96877.88
2022-11-23T00:09:14.580Z,96869.16
2022-11-23T00:12:20.536Z,96872.34
2022-11-23T00:15:27.277Z,96865.97
2022-11-23T00:18:35.877Z,96871.22
2022-11-23T00:21:42.847Z,96870.09
2022-11-23T00:24:48.781Z,96869.72
2022-11-23T00:27:55.540Z,96880.41
2022-11-23T00:31:02.117Z,96877.00
2022-11-23T00:34:11.446Z,96876.53
2022-11-23T00:37:19.409Z,96877.81
2022-11-23T00:40:26.165Z,96869.66
2022-11-23T00:43:33.154Z,96872.84
2022-11-23T00:46:39.873Z,96867.28
2022-11-23T00:49:48.402Z,96864.28
2022-11-23T00:52:57.664Z,96860.31
2022-11-23T00:56:03.868Z,96859.81
2022-11-23T00:59:10.721Z,96861.16
2022-11-23T01:02:17.473Z,96857.28
2022-11-23T01:05:26.772Z,96855.78
2022-11-23T01:08:32.698Z,96858.69
2022-11-23T01:11:39.394Z,96855.34
2022-11-23T01:14:45.375Z,96859.53
2022-11-23T01:17:52.099Z,96855.84
2022-11-23T01:21:03.741Z,96856.09
2022-11-23T01:24:16.062Z,96863.03
2022-11-23T01:27:22.130Z,96872.09
2022-11-23T01:30:30.678Z,96863.19
2022-11-23T01:33:37.378Z,96857.50
2022-11-23T01:36:47.679Z,96857.13
2022-11-23T01:39:53.695Z,96858.69
2022-11-23T01:43:04.010Z,96859.44
2022-11-23T01:46:12.213Z,96858.38
2022-11-23T01:49:19.712Z,96860.94
2022-11-23T01:52:30.224Z,96862.88
2022-11-23T01:55:39.822Z,96866.63
2022-11-23T01:58:54.967Z,96874.78
2022-11-23T02:02:02.214Z,96871.38
2022-11-23T02:05:10.826Z,96866.63
2022-11-23T02:08:23.051Z,96869.22
2022-11-23T02:11:29.116Z,96871.13
2022-11-23T02:14:36.401Z,96869.38
2022-11-23T02:17:42.543Z,96870.81
2022-11-23T02:20:50.188Z,96864.28
2022-11-23T02:24:12.943Z,96863.56
2022-11-23T02:27:24.559Z,96869.25
2022-11-23T02:30:35.006Z,96873.59
2022-11-23T02:33:42.074Z,96876.13
2022-11-23T02:36:52.177Z,96871.41
2022-11-23T02:40:07.630Z,96870.88
2022-11-23T02:46:37.892Z,96877.78
2022-11-23T02:49:45.958Z,96877.06
2022-11-23T02:52:52.634Z,96878.03
2022-11-23T02:55:58.485Z,96864.66
2022-11-23T02:59:08.166Z,96878.38
2022-11-23T03:02:14.369Z,96863.34
2022-11-23T03:05:21.467Z,96861.88
2022-11-23T03:08:30.898Z,96866.19
2022-11-23T03:11:39.602Z,96864.50
2022-11-23T03:14:48.204Z,96870.19
2022-11-23T03:17:57.076Z,96863.72
2022-11-23T03:21:07.146Z,96866.94
2022-11-23T03:24:16.500Z,96864.28
2022-11-23T03:27:24.322Z,96865.22
2022-11-23T03:30:33.977Z,96864.91
2022-11-23T03:33:41.886Z,96867.94
2022-11-23T03:36:49.131Z,96867.41
2022-11-23T03:39:55.209Z,96856.47
2022-11-23T03:43:01.988Z,96853.22
2022-11-23T03:46:10.734Z,96859.78
2022-11-23T03:49:17.590Z,96851.16
2022-11-23T03:52:24.107Z,96864.63
2022-11-23T03:55:31.166Z,96862.69
2022-11-23T03:58:37.882Z,96861.78
2022-11-23T04:01:50.814Z,96860.00
2022-11-23T04:05:01.506Z,96859.72
2022-11-23T04:08:28.550Z,96871.97
2022-11-23T04:11:35.845Z,96866.00
2022-11-23T04:14:42.960Z,96858.31
2022-11-23T04:17:51.741Z,96873.34
2022-11-23T04:20:58.747Z,96873.47
2022-11-23T04:24:04.965Z,96872.44
2022-11-23T04:27:14.536Z,96871.41
2022-11-23T04:30:22.278Z,96872.41
2022-11-23T04:33:32.020Z,96873.63
2022-11-23T04:36:39.032Z,96869.50
2022-11-23T04:39:48.234Z,96861.81
2022-11-23T04:43:02.109Z,96860.38
2022-11-23T04:46:13.757Z,96860.91
2022-11-23T04:49:23.149Z,96865.03
2022-11-23T04:52:30.180Z,96856.50
2022-11-23T04:55:37.117Z,96855.59
2022-11-23T04:58:45.011Z,96852.22
2022-11-23T05:01:52.422Z,96864.22
2022-11-23T05:05:20.962Z,96858.25
2022-11-23T05:08:26.954Z,96864.44
2022-11-23T05:11:42.163Z,96862.66
2022-11-23T05:14:49.531Z,96857.31
2022-11-23T05:18:06.574Z,96857.69
2022-11-23T05:21:16.987Z,96852.19
2022-11-23T05:24:23.979Z,96855.00
2022-11-23T05:27:46.005Z,96863.03
2022-11-23T05:30:54.093Z,96865.66
2022-11-23T05:34:00.135Z,96862.81
2022-11-23T05:37:19.995Z,96866.00
2022-11-23T05:40:48.128Z,96862.06
2022-11-23T05:43:55.600Z,96859.13
2022-11-23T05:47:05.786Z,96857.50
2022-11-23T05:50:14.377Z,96849.34
2022-11-23T05:53:28.284Z,96856.28
2022-11-23T05:56:42.351Z,96846.06
2022-11-23T06:00:02.157Z,96850.31
2022-11-23T06:03:19.329Z,96846.72
2022-11-23T06:06:25.775Z,96867.16
2022-11-23T06:09:36.422Z,96873.97
2022-11-23T06:12:46.780Z,96890.81
2022-11-23T06:15:57.320Z,96896.22
2022-11-23T06:19:10.780Z,96896.50
2022-11-23T06:22:22.559Z,96898.59
2022-11-23T06:25:38.953Z,96898.97
2022-11-23T06:29:04.332Z,96896.66
2022-11-23T06:32:10.342Z,96899.13
2022-11-23T06:35:17.877Z,96906.69
2022-11-23T06:38:27.154Z,96910.22
2022-11-23T06:41:51.939Z,96892.53
2022-11-23T06:44:57.963Z,96904.19
2022-11-23T06:48:04.898Z,96902.34
2022-11-23T06:51:14.306Z,96904.44
2022-11-23T06:54:24.607Z,96903.88
2022-11-23T06:57:36.031Z,96907.16
2022-11-23T07:00:43.382Z,96903.00
2022-11-23T07:03:50.365Z,96896.41
2022-11-23T07:07:06.566Z,96898.56
2022-11-23T07:10:21.093Z,96892.72
2022-11-23T07:13:37.807Z,96899.22
2022-11-23T07:16:43.946Z,96904.94
2022-11-23T07:20:04.880Z,96900.16
2022-11-23T07:23:25.955Z,96908.88
2022-11-23T07:26:48.974Z,96916.69
2022-11-23T07:30:14.698Z,96917.03
2022-11-23T07:33:35.587Z,96926.72
2022-11-23T07:37:01.840Z,96918.13
2022-11-23T07:40:25.107Z,96915.25
2022-11-23T07:43:45.930Z,96915.31
2022-11-23T07:47:10.380Z,96925.84
2022-11-23T07:50:32.492Z,96921.19
2022-11-23T07:53:39.597Z,96928.84
2022-11-23T07:56:45.547Z,96936.81
2022-11-23T07:59:52.263Z,96931.25
2022-11-23T08:06:28.337Z,96932.16
2022-11-23T08:09:34.344Z,96923.47
2022-11-23T08:12:41.173Z,96936.09
2022-11-23T08:15:53.277Z,96929.31
2022-11-23T08:19:03.597Z,96921.66
2022-11-23T08:22:12.370Z,96923.72
2022-11-23T08:25:22.399Z,96924.97
2022-11-23T08:28:28.474Z,96929.84
2022-11-23T08:31:35.322Z,96928.56
2022-11-23T08:34:46.903Z,96919.72
2022-11-23T08:37:53.824Z,96913.94
2022-11-23T08:41:02.520Z,96907.84
2022-11-23T08:44:12.431Z,96908.69
2022-11-23T08:47:19.837Z,96908.91
2022-11-23T08:50:29.485Z,96911.25
2022-11-23T08:53:36.778Z,96914.59
2022-11-23T08:56:43.531Z,96908.97
2022-11-23T08:59:49.486Z,96908.44
2022-11-23T09:02:58.465Z,96910.78
2022-11-23T09:06:07.644Z,96911.38
2022-11-23T09:09:14.706Z,96906.97
2022-11-23T09:12:20.921Z,96901.47
2022-11-23T09:15:27.696Z,96906.56
2022-11-23T09:18:35.678Z,96917.53
2022-11-23T09:21:45.238Z,96902.03
2022-11-23T09:24:51.103Z,96905.94
2022-11-23T09:28:02.160Z,96907.41
2022-11-23T09:31:08.995Z,96918.63
2022-11-23T09:34:16.516Z,96913.09
2022-11-23T09:37:26.149Z,96918.53
2022-11-23T09:40:39.432Z,96913.94
2022-11-23T09:44:05.065Z,96904.16
2022-11-23T09:47:46.702Z,96892.09
2022-11-23T09:50:59.624Z,96891.09
2022-11-23T09:54:27.801Z,96892.06
2022-11-23T09:57:39.229Z,96881.09
2022-11-23T10:00:53.656Z,96878.28
2022-11-23T10:04:01.504Z,96876.13
2022-11-23T10:07:35.735Z,96865.34
2022-11-23T10:10:55.808Z,96859.88
2022-11-23T10:14:29.900Z,96862.00
2022-11-23T10:18:03.046Z,96855.34
2022-11-23T10:21:30.172Z,96861.75
2022-11-23T10:24:45.527Z,96864.38
2022-11-23T10:28:03.337Z,96860.53
2022-11-23T10:31:19.635Z,96854.25
2022-11-23T10:34:49.672Z,96861.38
2022-11-23T10:38:03.759Z,96852.38
2022-11-23T10:41:16.021Z,96847.63
2022-11-23T10:44:37.129Z,96844.22
2022-11-23T10:47:52.283Z,96841.00
2022-11-23T10:51:22.686Z,96835.59
2022-11-23T10:54:35.317Z,96837.72
2022-11-23T10:57:48.324Z,96835.97
2022-11-23T11:01:03.876Z,96835.78
2022-11-23T11:04:27.779Z,96833.66
2022-11-23T11:07:35.194Z,96831.84
2022-11-23T11:10:50.310Z,96831.84
2022-11-23T11:14:08.670Z,96834.13
2022-11-23T11:17:30.819Z,96830.81
2022-11-23T11:20:39.547Z,96843.31
2022-11-23T11:23:49.733Z,96840.03
2022-11-23T11:27:04.538Z,96831.47
2022-11-23T11:30:25.597Z,96833.28
2022-11-23T11:33:49.715Z,96832.00
2022-11-23T11:37:09.135Z,96823.63
2022-11-23T11:40:29.079Z,96830.84
2022-11-23T11:43:44.015Z,96829.38
2022-11-23T11:47:00.971Z,96828.22
2022-11-23T11:50:31.389Z,96829.69
2022-11-23T11:53:52.485Z,96828.22
2022-11-23T11:57:07.926Z,96831.13
2022-11-23T12:00:20.824Z,96833.75
2022-11-23T12:03:44.487Z,96831.09
2022-11-23T12:07:07.338Z,96843.09
2022-11-23T12:10:21.888Z,96847.53
2022-11-23T12:13:35.110Z,96840.00
2022-11-23T12:20:45.393Z,96846.41
2022-11-23T12:24:13.885Z,96841.63
2022-11-23T12:27:48.259Z,96847.53
2022-11-23T12:31:13.565Z,96862.66
2022-11-23T12:34:51.017Z,96863.31
2022-11-23T12:38:20.743Z,96861.69
2022-11-23T12:41:45.276Z,96856.72
2022-11-23T12:45:20.442Z,96856.09
2022-11-23T12:48:49.041Z,96865.00
2022-11-23T12:52:13.452Z,96866.31
2022-11-23T12:55:35.995Z,96865.47
2022-11-23T12:58:51.042Z,96872.34
2022-11-23T13:02:06.924Z,96875.47
2022-11-23T13:06:15.088Z,96872.00
2022-11-23T13:09:50.539Z,96875.78
2022-11-23T13:13:40.700Z,96875.66
2022-11-23T13:17:24.358Z,96880.50
2022-11-23T13:21:07.294Z,96878.81
2022-11-23T13:24:35.278Z,96862.53
2022-11-23T13:27:57.464Z,96876.03
2022-11-23T13:31:25.646Z,96878.06
2022-11-23T13:34:51.326Z,96876.63
2022-11-23T13:38:27.387Z,96871.84
2022-11-23T13:42:03.673Z,96880.38
2022-11-23T13:45:28.863Z,96883.16
2022-11-23T13:49:00.050Z,96881.34
2022-11-23T13:52:36.574Z,96878.38
2022-11-23T13:55:43.604Z,96882.66
2022-11-23T13:58:57.573Z,96879.16
2022-11-23T14:02:31.218Z,96886.22
2022-11-23T14:06:01.963Z,96885.63
2022-11-23T14:09:25.211Z,96886.25
2022-11-23T14:12:46.028Z,96891.34
2022-11-23T14:16:03.100Z,96891.28
2022-11-23T14:19:31.435Z,96899.28
2022-11-23T14:23:03.364Z,96889.78
2022-11-23T14:26:36.647Z,96905.56
2022-11-23T14:30:22.838Z,96905.72
2022-11-23T14:33:45.859Z,96898.63
2022-11-23T14:37:05.860Z,96894.81
2022-11-23T14:40:33.837Z,96898.56
2022-11-23T14:43:45.824Z,96901.31
2022-11-23T14:47:06.647Z,96893.06
2022-11-23T14:50:27.735Z,96908.22
2022-11-23T14:53:46.722Z,96912.38
2022-11-23T14:57:00.857Z,96915.66
2022-11-23T15:00:28.950Z,96922.47
2022-11-23T15:03:50.308Z,96919.63
2022-11-23T15:07:07.008Z,96916.31
2022-11-23T15:10:33.912Z,96919.88
2022-11-23T15:13:48.626Z,96932.13
2022-11-23T15:16:57.285Z,96931.31
2022-11-23T15:20:07.362Z,96924.00
2022-11-23T15:23:25.242Z,96926.31
2022-11-23T15:26:48.037Z,96920.84
2022-11-23T15:29:58.584Z,96918.03
2022-11-23T15:33:14.455Z,96913.91
2022-11-23T15:36:28.228Z,96918.13
2022-11-23T15:39:35.723Z,96931.41
2022-11-23T15:42:42.736Z,96930.69
2022-11-23T15:46:09.087Z,96936.38
2022-11-23T15:49:20.856Z,96940.75
2022-11-23T15:52:30.259Z,96945.56
2022-11-23T15:55:37.769Z,96939.69
2022-11-23T15:58:54.454Z,96933.13
2022-11-23T16:02:03.353Z,96932.50
2022-11-23T16:05:22.510Z,96934.13
2022-11-23T16:08:28.851Z,96936.56
2022-11-23T16:11:39.023Z,96939.94
2022-11-23T16:14:45.061Z,96944.13
2022-11-23T16:17:52.177Z,96942.56
2022-11-23T16:21:05.732Z,96950.38
2022-11-23T16:24:26.086Z,96941.13
2022-11-23T16:27:32.218Z,96949.31
2022-11-23T16:30:42.853Z,96955.38
2022-11-23T16:33:48.855Z,96964.16
2022-11-23T16:36:59.488Z,96960.47
2022-11-23T16:40:05.522Z,96956.66
2022-11-23T16:43:15.038Z,96956.53
2022-11-23T16:46:21.003Z,96954.13
2022-11-23T16:49:27.959Z,96944.22
2022-11-23T16:52:39.550Z,96949.69
2022-11-23T16:55:47.276Z,96960.50
2022-11-23T16:58:55.492Z,96962.72
2022-11-23T17:02:02.474Z,96952.94
2022-11-23T17:05:17.586Z,96961.56
2022-11-23T17:08:27.047Z,96966.56
2022-11-23T17:11:33.279Z,96961.84
2022-11-23T17:14:42.879Z,96962.50
2022-11-23T17:17:51.797Z,96968.13
2022-11-23T17:20:59.235Z,96964.69
2022-11-23T17:24:09.003Z,96966.75
2022-11-23T17:27:21.670Z,96965.31
2022-11-23T17:30:27.877Z,96972.00
2022-11-23T17:33:34.784Z,96964.06
2022-11-23T17:36:42.768Z,96959.50
2022-11-23T17:39:53.494Z,96954.94
2022-11-23T17:43:00.509Z,96956.44
2022-11-23T17:46:08.016Z,96956.81
2022-11-23T17:49:18.361Z,96960.78
2022-11-23T17:52:27.453Z,96962.50
2022-11-23T17:55:36.438Z,96968.56
2022-11-23T17:58:43.293Z,96966.00
2022-11-23T18:01:49.420Z,96971.25
2022-11-23T18:04:56.417Z,96975.56
2022-11-23T18:08:02.466Z,96979.13
2022-11-23T18:11:12.500Z,96975.78
2022-11-23T18:14:19.484Z,96979.97
2022-11-23T18:17:26.519Z,96981.75
2022-11-23T18:20:32.604Z,96979.50
2022-11-23T18:23:40.200Z,96969.63
2022-11-23T18:26:49.182Z,96982.22
2022-11-23T18:29:56.187Z,96979.75
2022-11-23T18:33:02.377Z,96975.47
2022-11-23T18:36:13.059Z,96970.31
2022-11-23T18:39:19.096Z,96966.75
2022-11-23T18:42:28.633Z,96976.06
2022-11-23T18:46:10.464Z,96974.13
2022-11-23T18:49:17.353Z,96967.72
2022-11-23T18:52:23.331Z,96984.91
2022-11-23T18:55:30.459Z,96990.53
2022-11-23T18:58:37.144Z,96991.13
2022-11-23T19:01:46.566Z,96980.41
2022-11-23T19:04:52.609Z,96984.69
2022-11-23T19:08:05.777Z,96978.91
2022-11-23T19:11:17.736Z,96971.56
2022-11-23T19:14:25.266Z,96972.78
2022-11-23T19:17:34.378Z,96985.22
2022-11-23T19:20:42.892Z,96972.31
2022-11-23T19:23:54.079Z,96972.97
2022-11-23T19:27:01.006Z,96975.09
2022-11-23T19:30:09.622Z,96978.69
2022-11-23T19:33:20.049Z,96976.94
2022-11-23T19:36:28.763Z,96978.69
2022-11-23T19:39:36.398Z,96970.44
2022-11-23T19:42:42.882Z,96978.09
2022-11-23T19:45:57.811Z,96985.56
2022-11-23T19:49:08.608Z,96976.84
2022-11-23T19:52:15.715Z,96963.84
2022-11-23T19:55:22.113Z,96974.94
2022-11-23T19:58:31.271Z,96971.06
2022-11-23T20:01:37.950Z,96985.88
2022-11-23T20:04:47.574Z,96982.88
2022-11-23T20:07:54.451Z,96996.38
2022-11-23T20:11:01.426Z,96995.84
2022-11-23T20:14:08.050Z,96995.41
2022-11-23T20:17:15.948Z,96993.81
2022-11-23T20:20:24.605Z,96991.41
2022-11-23T20:23:32.524Z,96997.47
2022-11-23T20:26:39.342Z,97001.63
2022-11-23T20:29:46.962Z,96996.16
2022-11-23T20:32:54.078Z,96997.25
2022-11-23T20:36:17.115Z,97010.09
2022-11-23T20:39:23.676Z,97008.22
2022-11-23T20:42:32.043Z,97010.03
2022-11-23T20:45:38.152Z,97006.34
2022-11-23T20:48:48.651Z,97003.13
2022-11-23T20:51:57.365Z,96994.34
2022-11-23T20:55:04.398Z,97010.69
2022-11-23T20:58:10.379Z,97013.53
2022-11-23T21:01:19.939Z,97017.75
2022-11-23T21:04:26.300Z,97010.00
2022-11-23T21:07:35.882Z,97011.28
2022-11-23T21:10:54.339Z,97009.03
2022-11-23T21:14:16.932Z,97017.13
2022-11-23T21:17:24.228Z,97018.66
2022-11-23T21:20:36.281Z,97030.94
2022-11-23T21:23:49.503Z,97030.69
2022-11-23T21:26:59.343Z,97038.25
2022-11-23T21:30:05.852Z,97028.13
2022-11-23T21:33:12.716Z,97048.97
2022-11-23T21:36:18.994Z,97045.31
2022-11-23T21:39:30.243Z,97048.44
2022-11-23T21:42:37.444Z,97051.19
2022-11-23T21:45:44.887Z,97045.06
2022-11-23T21:48:50.908Z,97046.13
2022-11-23T21:51:57.804Z,97047.31
2022-11-23T21:55:06.585Z,97049.78
2022-11-23T21:58:13.453Z,97044.78
2022-11-23T22:01:23.154Z,97052.56
2022-11-23T22:04:30.204Z,97053.19
2022-11-23T22:07:36.914Z,97046.75
2022-11-23T22:10:46.401Z,97053.19
2022-11-23T22:13:58.134Z,97061.34
2022-11-23T22:17:06.441Z,97052.00
2022-11-23T22:20:14.648Z,97046.81
2022-11-23T22:23:21.478Z,97043.53
2022-11-23T22:26:30.980Z,97046.50
2022-11-23T22:29:37.899Z,97045.25
2022-11-23T22:32:46.279Z,97043.38
2022-11-23T22:35:53.413Z,97047.88
2022-11-23T22:39:02.330Z,97044.06
2022-11-23T22:42:11.993Z,97053.59
2022-11-23T22:45:18.254Z,97048.44
2022-11-23T22:48:25.075Z,97052.78
2022-11-23T22:51:33.065Z,97045.69
2022-11-23T22:54:40.004Z,97048.25
2022-11-23T22:57:48.584Z,97047.19
2022-11-23T23:00:56.299Z,97042.63
2022-11-23T23:04:04.601Z,97046.22
2022-11-23T23:07:11.509Z,97046.88
2022-11-23T23:10:17.667Z,97051.00
2022-11-23T23:13:27.207Z,97051.00
2022-11-23T23:16:33.686Z,97059.13
2022-11-23T23:19:40.656Z,97049.84
2022-11-23T23:22:47.273Z,97044.13
2022-11-23T23:25:57.233Z,97050.34
2022-11-23T23:29:05.840Z,97044.69
2022-11-23T23:32:13.745Z,97054.84
2022-11-23T23:35:19.970Z,97035.25
2022-11-23T23:38:30.140Z,97047.03
2022-11-23T23:41:36.453Z,97053.69
2022-11-23T23:44:45.862Z,97052.78
2022-11-23T23:47:51.780Z,97047.41
2022-11-23T23:50:59.125Z,97045.91
2022-11-23T23:54:05.132Z,97043.28
2022-11-23T23:57:12.706Z,97036.66
